Time;durP1;ratioP1;P1;durP2;ratioP2;P2;SDS_P1;SDS_P2;PMS_P1;PMS_P2;Temp;Humidity;BMP_temperature;BMP_pressure;BME280_temperature;BME280_humidity;BME280_pressure;Samples;Min_cycle;Max_cycle;Signal;HPM_P1;HPM_P2
2021/03/10 00:00:52;;;;;;;;;90.25;62.75;;;;;-2.14;63.17;100003.50;4999666;28;8829;-61
2021/03/10 00:03:19;;;;;;;;;90.25;63.00;;;;;-2.38;65.69;100004.47;4987561;28;9625;-62
2021/03/10 00:05:46;;;;;;;;;89.25;62.00;;;;;-2.33;65.75;100007.09;4989055;28;8846;-62
2021/03/10 00:08:13;;;;;;;;;82.50;59.00;;;;;-2.52;65.76;100012.44;4969911;28;8966;-61
2021/03/10 00:10:40;;;;;;;;;81.00;54.00;;;;;-2.04;63.83;100005.19;5022716;28;8848;-61
2021/03/10 00:13:08;;;;;;;;;89.50;60.75;;;;;-2.30;65.91;100007.09;5005820;28;8841;-61
2021/03/10 00:15:35;;;;;;;;;87.75;56.50;;;;;-2.43;65.38;100006.25;5006401;28;8857;-62
2021/03/10 00:18:04;;;;;;;;;79.50;57.00;;;;;-2.64;66.33;100001.94;4990989;28;8845;-60
2021/03/10 00:20:30;;;;;;;;;78.00;57.00;;;;;-2.28;64.97;100005.31;4990041;28;8822;-62
2021/03/10 00:22:57;;;;;;;;;73.75;54.50;;;;;-2.44;66.15;100008.00;5021399;28;8833;-61
2021/03/10 00:25:24;;;;;;;;;78.75;59.50;;;;;-2.43;66.94;100006.25;4990639;28;8865;-61
2021/03/10 00:27:51;;;;;;;;;75.00;55.25;;;;;-2.06;64.88;100000.81;4989232;28;8818;-62
2021/03/10 00:30:19;;;;;;;;;87.50;63.50;;;;;-2.31;66.86;100006.22;4994596;28;9499;-62
2021/03/10 00:32:46;;;;;;;;;89.50;60.50;;;;;-2.35;66.86;99999.22;4988391;28;8884;-61
2021/03/10 00:35:30;;;;;;;;;85.75;64.00;;;;;-2.43;66.64;99995.72;4988619;28;8880;-61
2021/03/10 00:38:01;;;;;;;;;78.75;61.00;;;;;-2.37;66.59;99990.47;5005014;28;8844;-61
2021/03/10 00:40:28;;;;;;;;;120.75;81.00;;;;;-1.98;65.37;100002.53;4989700;28;8834;-60
2021/03/10 00:42:55;;;;;;;;;127.75;82.00;;;;;-2.18;65.31;99993.03;4989206;28;8858;-62
2021/03/10 00:45:22;;;;;;;;;108.25;72.50;;;;;-2.32;66.31;99991.28;5005728;28;8873;-61
2021/03/10 00:47:49;;;;;;;;;93.00;65.00;;;;;-2.52;67.01;99996.66;4990901;28;8838;-61
2021/03/10 00:50:20;;;;;;;;;91.50;67.25;;;;;-2.38;66.91;100003.63;5002754;28;8869;-61
2021/03/10 00:52:48;;;;;;;;;97.75;68.50;;;;;-2.18;65.63;99986.00;4988898;28;8853;-61
2021/03/10 00:55:18;;;;;;;;;94.75;64.25;;;;;-2.20;65.35;99990.38;4990142;28;8830;-62
2021/03/10 00:57:45;;;;;;;;;89.25;60.50;;;;;-2.11;65.28;99992.09;4988542;28;8870;-61
2021/03/10 01:00:13;;;;;;;;;86.75;62.00;;;;;-2.34;65.54;99992.19;5012352;28;8976;-61
2021/03/10 01:02:41;;;;;;;;;80.50;57.25;;;;;-2.37;65.88;99995.72;4980070;28;8917;-61
2021/03/10 01:05:09;;;;;;;;;68.25;38.25;;;;;-2.57;66.00;99992.31;4990321;28;8838;-62
2021/03/10 01:07:36;;;;;;;;;84.50;60.25;;;;;-2.50;67.29;99987.00;4990707;28;8915;-61
2021/03/10 01:10:07;;;;;;;;;75.50;56.25;;;;;-2.37;65.84;99989.56;4990925;28;8833;-61
2021/03/10 01:12:35;;;;;;;;;76.00;50.25;;;;;-2.88;67.81;99998.50;5002195;28;8856;-61
2021/03/10 01:15:07;;;;;;;;;78.50;57.25;;;;;-2.24;66.81;99976.38;4985580;28;8960;-61
2021/03/10 01:17:34;;;;;;;;;90.75;64.50;;;;;-2.61;67.03;99975.63;4971767;28;8877;-62
2021/03/10 01:20:05;;;;;;;;;90.25;59.00;;;;;-3.06;68.83;99974.88;4989525;28;8834;-61
2021/03/10 01:22:32;;;;;;;;;99.75;68.00;;;;;-3.09;69.72;99977.53;4990265;28;8830;-61
2021/03/10 01:24:59;;;;;;;;;90.50;63.25;;;;;-3.12;70.24;99967.91;4991631;28;8941;-61
2021/03/10 01:27:26;;;;;;;;;89.50;58.50;;;;;-3.24;70.85;99965.28;5003298;28;8832;-61
2021/03/10 01:29:53;;;;;;;;;97.00;66.50;;;;;-3.37;71.36;99971.41;5011872;28;8880;-61
2021/03/10 01:32:19;;;;;;;;;92.50;65.25;;;;;-3.50;72.29;99960.09;4987204;28;8891;-61
2021/03/10 01:34:46;;;;;;;;;86.75;59.50;;;;;-3.42;72.77;99962.66;4982325;28;8852;-61
2021/03/10 01:37:13;;;;;;;;;88.25;63.75;;;;;-3.11;72.58;99961.78;5005705;28;8844;-61
2021/03/10 01:39:40;;;;;;;;;93.50;63.50;;;;;-3.17;72.13;99963.53;4988070;28;8853;-62
2021/03/10 01:42:08;;;;;;;;;78.50;58.00;;;;;-3.45;73.25;99958.34;5006715;28;8886;-61
2021/03/10 01:44:35;;;;;;;;;77.50;59.00;;;;;-3.55;73.32;99952.19;5006276;28;8880;-62
2021/03/10 01:47:03;;;;;;;;;87.50;61.50;;;;;-3.27;72.30;99957.41;4993459;28;8855;-61
2021/03/10 01:49:30;;;;;;;;;77.00;55.00;;;;;-3.31;73.27;99955.69;4992820;28;8860;-61
2021/03/10 01:51:57;;;;;;;;;84.50;60.75;;;;;-3.49;72.98;99961.81;4993176;28;8830;-61
2021/03/10 01:54:25;;;;;;;;;81.00;57.50;;;;;-3.21;72.57;99959.16;5008947;28;8860;-60
2021/03/10 01:56:53;;;;;;;;;83.50;60.00;;;;;-3.45;71.84;99953.09;5008808;28;8868;-61
2021/03/10 01:59:22;;;;;;;;;78.50;56.50;;;;;-3.24;71.14;99951.28;5005809;28;8829;-61
2021/03/10 02:01:49;;;;;;;;;71.00;52.00;;;;;-3.58;71.73;99956.56;5017795;28;8860;-60
2021/03/10 02:04:17;;;;;;;;;69.75;47.00;;;;;-3.34;70.75;99960.94;4979099;28;8826;-62
2021/03/10 02:07:12;;;;;;;;;68.75;52.50;;;;;-3.08;69.86;99947.78;5000542;28;8902;-62
2021/03/10 02:10:07;;;;;;;;;68.00;49.00;;;;;-3.35;70.78;99953.94;5026324;28;8972;-60
2021/03/10 02:12:48;;;;;;;;;68.00;49.00;;;;;-3.81;72.02;99948.69;5008288;28;8880;-62
2021/03/10 02:15:30;;;;;;;;;79.50;52.50;;;;;-4.20;73.59;99953.00;4993002;28;8870;-61
2021/03/10 02:18:14;;;;;;;;;59.00;48.25;;;;;-3.47;72.45;99948.72;5008799;28;8956;-60
2021/03/10 02:20:47;;;;;;;;;72.75;57.25;;;;;-3.57;72.30;99955.69;5007319;28;8829;-58
2021/03/10 02:23:41;;;;;;;;;92.50;65.50;;;;;-3.15;69.84;99943.41;4991241;28;8964;-62
2021/03/10 02:26:32;;;;;;;;;78.25;55.00;;;;;-3.18;70.29;99948.66;5008357;28;8920;-61
2021/03/10 02:29:08;;;;;;;;;78.50;54.50;;;;;-3.23;70.23;99942.56;4971662;28;8876;-61
2021/03/10 02:31:40;;;;;;;;;77.50;55.25;;;;;-3.67;70.37;99938.19;5022424;28;8862;-61
2021/03/10 02:34:08;;;;;;;;;90.75;61.25;;;;;-3.96;73.58;99941.69;5009694;28;8875;-61
2021/03/10 02:36:57;;;;;;;;;90.00;64.00;;;;;-4.12;75.28;99946.03;5001458;28;8884;-61
2021/03/10 02:39:25;;;;;;;;;81.50;55.25;;;;;-4.15;74.88;99950.41;4992052;28;8830;-60
2021/03/10 02:41:53;;;;;;;;;75.50;53.00;;;;;-4.28;75.25;99939.88;4981865;28;8818;-61
2021/03/10 02:44:23;;;;;;;;;78.75;58.00;;;;;-4.03;74.66;99942.53;4991498;28;8892;-61
2021/03/10 02:46:50;;;;;;;;;74.50;48.75;;;;;-3.83;74.95;99930.31;4977417;28;8828;-61
2021/03/10 02:49:19;;;;;;;;;78.25;49.75;;;;;-3.87;75.31;99936.47;4985537;28;8842;-61
2021/03/10 02:51:48;;;;;;;;;62.75;47.25;;;;;-3.52;73.38;99946.06;4972276;28;8864;-61
2021/03/10 02:54:19;;;;;;;;;68.25;47.00;;;;;-3.39;72.68;99937.31;4990631;28;8873;-61
2021/03/10 02:56:47;;;;;;;;;66.25;48.50;;;;;-3.64;74.40;99938.19;4990924;28;8950;-60
2021/03/10 02:59:14;;;;;;;;;70.25;48.00;;;;;-3.58;73.69;99946.06;5020895;28;8872;-60
2021/03/10 03:01:41;;;;;;;;;71.00;51.50;;;;;-3.54;73.90;99937.31;4986440;28;8818;-61
2021/03/10 03:04:09;;;;;;;;;74.50;47.00;;;;;-3.69;74.63;99945.19;4991374;28;8869;-61
2021/03/10 03:06:36;;;;;;;;;66.25;48.25;;;;;-3.18;74.08;99946.06;4991113;28;8822;-60
2021/03/10 03:09:06;;;;;;;;;67.75;46.00;;;;;-3.11;72.01;99953.91;4997470;28;8966;-61
2021/03/10 03:11:33;;;;;;;;;59.25;42.00;;;;;-3.19;73.81;99949.53;4993332;28;8873;-60
2021/03/10 03:14:04;;;;;;;;;65.25;46.50;;;;;-2.81;72.18;99951.22;4997445;28;8898;-60
2021/03/10 03:16:32;;;;;;;;;49.25;39.25;;;;;-2.83;71.75;99947.72;5006654;28;8846;-60
2021/03/10 03:19:01;;;;;;;;;55.00;46.00;;;;;-3.54;74.57;99958.31;4991122;28;8849;-60
2021/03/10 03:21:28;;;;;;;;;55.00;42.25;;;;;-2.67;71.54;99944.13;4990466;28;8868;-60
2021/03/10 03:23:55;;;;;;;;;64.50;42.25;;;;;-3.02;73.07;99949.50;4984320;28;8980;-60
2021/03/10 03:26:23;;;;;;;;;60.25;44.00;;;;;-2.72;72.17;99946.78;4990347;28;8854;-60
2021/03/10 03:28:51;;;;;;;;;49.50;44.00;;;;;-2.59;71.59;99942.34;5006999;28;8818;-60
2021/03/10 03:31:18;;;;;;;;;58.25;50.00;;;;;-2.84;71.27;99945.94;5013260;28;8830;-60
2021/03/10 03:33:46;;;;;;;;;58.25;49.75;;;;;-2.85;72.92;99950.31;5007853;28;8850;-61
2021/03/10 03:36:13;;;;;;;;;154.50;123.50;;;;;-2.60;72.65;99956.38;4995500;28;8848;-61
2021/03/10 03:38:41;;;;;;;;;91.75;65.75;;;;;-2.92;73.53;99948.63;4991011;28;8857;-61
2021/03/10 03:41:08;;;;;;;;;90.50;66.00;;;;;-2.94;74.49;99956.50;4990156;28;8852;-60
2021/03/10 03:43:36;;;;;;;;;69.75;51.75;;;;;-2.55;72.16;99959.88;4991328;28;8865;-61
2021/03/10 03:46:05;;;;;;;;;76.50;53.25;;;;;-2.35;70.51;99956.25;5023049;28;8888;-60
2021/03/10 03:48:32;;;;;;;;;68.50;48.25;;;;;-2.54;70.97;99955.47;4991821;28;8814;-60
2021/03/10 03:50:59;;;;;;;;;61.50;47.50;;;;;-2.74;71.25;99952.91;5006516;28;8858;-60
2021/03/10 03:53:26;;;;;;;;;59.50;44.00;;;;;-3.02;73.76;99957.41;5006931;28;8857;-60
2021/03/10 03:55:53;;;;;;;;;66.25;50.75;;;;;-3.00;73.77;99951.25;4991413;28;9836;-58
2021/03/10 03:58:20;;;;;;;;;68.50;49.50;;;;;-2.89;74.26;99949.47;4992194;28;8846;-60
2021/03/10 04:00:47;;;;;;;;;62.75;49.25;;;;;-2.57;72.86;99956.38;4992049;28;8842;-60
2021/03/10 04:03:14;;;;;;;;;75.50;54.00;;;;;-2.45;72.51;99953.69;4990125;28;8841;-60
2021/03/10 04:05:41;;;;;;;;;64.50;51.00;;;;;-2.18;70.96;99961.47;4990639;28;8853;-60
2021/03/10 04:08:10;;;;;;;;;61.25;50.25;;;;;-2.48;70.96;99961.56;4991447;28;8892;-60
2021/03/10 04:10:39;;;;;;;;;69.75;49.00;;;;;-2.21;69.84;99957.94;5014691;28;9493;-59
2021/03/10 04:13:07;;;;;;;;;73.75;52.25;;;;;-2.28;71.56;99958.00;4990896;28;8998;-59
2021/03/10 04:15:35;;;;;;;;;76.00;53.00;;;;;-2.35;71.15;99951.00;4990112;28;8861;-60
2021/03/10 04:18:04;;;;;;;;;64.50;48.50;;;;;-2.37;69.96;99952.75;4989896;28;8912;-60
2021/03/10 04:20:31;;;;;;;;;76.75;57.50;;;;;-2.78;72.59;99953.81;4989515;28;8937;-60
2021/03/10 04:22:58;;;;;;;;;69.00;48.00;;;;;-2.84;72.89;99948.56;4990470;28;8891;-60
2021/03/10 04:25:25;;;;;;;;;78.75;51.00;;;;;-2.65;72.89;99947.63;4989187;28;8923;-60
2021/03/10 04:27:52;;;;;;;;;67.00;45.50;;;;;-2.63;72.67;99948.50;4990693;28;8822;-60
2021/03/10 04:30:20;;;;;;;;;61.75;41.50;;;;;-2.44;71.06;99944.91;4990544;28;9007;-60
2021/03/10 04:32:47;;;;;;;;;65.25;49.25;;;;;-2.53;71.70;99952.81;4990843;28;8829;-60
2021/03/10 04:35:16;;;;;;;;;58.75;39.50;;;;;-2.62;72.28;99949.38;4989636;28;9378;-60
2021/03/10 04:37:43;;;;;;;;;63.75;46.50;;;;;-2.13;70.52;99951.75;4990865;28;8857;-60
2021/03/10 04:40:11;;;;;;;;;68.00;47.00;;;;;-2.49;71.07;99943.19;4989626;28;8841;-59
2021/03/10 04:42:40;;;;;;;;;58.00;45.25;;;;;-2.54;72.27;99947.59;5006051;28;8846;-60
2021/03/10 04:45:09;;;;;;;;;50.75;38.75;;;;;-2.23;70.99;99943.94;4991160;28;8901;-60
2021/03/10 04:47:36;;;;;;;;;64.25;43.25;;;;;-1.98;70.24;99956.94;4991089;28;8872;-59
2021/03/10 04:50:06;;;;;;;;;65.00;45.00;;;;;-2.14;71.15;99950.03;4990404;28;8834;-61
2021/03/10 04:52:33;;;;;;;;;52.75;38.50;;;;;-2.25;70.53;99952.72;5006418;28;8861;-59
2021/03/10 04:55:00;;;;;;;;;69.50;49.00;;;;;-2.24;70.06;99943.94;4990293;28;8921;-60
2021/03/10 04:57:27;;;;;;;;;68.75;48.25;;;;;-2.18;70.64;99949.16;5005420;28;8830;-60
2021/03/10 04:59:54;;;;;;;;;78.00;52.50;;;;;-2.21;71.71;99943.94;4990379;28;8838;-60
2021/03/10 05:02:21;;;;;;;;;87.75;60.00;;;;;-2.21;71.23;99939.53;4990448;28;8850;-60
2021/03/10 05:04:48;;;;;;;;;118.00;79.25;;;;;-2.06;69.21;99938.56;5005052;28;9576;-59
2021/03/10 05:07:15;;;;;;;;;83.75;60.50;;;;;-2.02;69.00;99942.94;4989997;28;8845;-59
2021/03/10 05:09:43;;;;;;;;;80.00;60.25;;;;;-1.84;68.25;99948.97;4997712;28;8957;-59
2021/03/10 05:12:11;;;;;;;;;80.75;55.25;;;;;-2.08;68.57;99948.25;4990788;28;8838;-58
2021/03/10 05:14:38;;;;;;;;;81.50;60.50;;;;;-2.06;67.97;99943.81;4991201;28;8881;-60
2021/03/10 05:17:05;;;;;;;;;82.50;59.25;;;;;-2.08;68.90;99950.88;5005597;28;8964;-60
2021/03/10 05:19:32;;;;;;;;;78.75;58.50;;;;;-2.16;68.95;99946.50;4989365;28;8879;-60
2021/03/10 05:21:59;;;;;;;;;68.50;47.50;;;;;-2.00;68.76;99959.59;5005557;28;8834;-60
2021/03/10 05:24:26;;;;;;;;;68.25;53.50;;;;;-1.59;68.02;99961.03;4990209;28;8842;-60
2021/03/10 05:26:53;;;;;;;;;75.25;54.75;;;;;-1.73;68.01;99962.91;4989187;28;8841;-60
2021/03/10 05:29:20;;;;;;;;;87.25;59.25;;;;;-2.02;69.57;99969.25;4990271;28;8846;-60
2021/03/10 05:31:47;;;;;;;;;68.50;49.00;;;;;-3.00;77.39;99976.63;4988907;28;8908;-59
2021/03/10 05:34:14;;;;;;;;;65.25;43.25;;;;;-2.66;77.79;99978.31;5020878;28;8877;-59
2021/03/10 05:36:41;;;;;;;;;60.75;45.50;;;;;-2.37;75.43;99971.16;4990264;28;8900;-61
2021/03/10 05:39:14;;;;;;;;;62.00;46.25;;;;;-2.27;73.96;99967.63;4990259;28;8845;-60
2021/03/10 05:41:42;;;;;;;;;63.25;46.00;;;;;-2.38;73.09;99966.81;5004613;28;8853;-60
2021/03/10 05:44:09;;;;;;;;;65.00;48.00;;;;;-2.14;71.30;99974.56;4989440;28;8868;-60
2021/03/10 05:46:37;;;;;;;;;71.50;55.00;;;;;-1.92;70.65;99967.44;4989406;28;8869;-58
2021/03/10 05:49:06;;;;;;;;;68.50;45.00;;;;;-1.85;69.10;99973.50;4988968;28;8862;-60
2021/03/10 05:51:35;;;;;;;;;64.25;48.50;;;;;-1.69;68.14;99974.28;4989747;28;8892;-60
2021/03/10 05:54:04;;;;;;;;;47.00;34.00;;;;;-2.02;69.55;99977.13;4988930;28;8846;-60
2021/03/10 05:56:32;;;;;;;;;53.25;42.25;;;;;-1.83;69.13;99971.75;4989380;28;8822;-60
2021/03/10 05:59:04;;;;;;;;;47.50;37.75;;;;;-1.65;67.68;99970.75;4988802;28;9012;-60
2021/03/10 06:01:31;;;;;;;;;49.25;42.00;;;;;-1.56;67.59;99976.81;5004997;28;8941;-60
2021/03/10 06:04:02;;;;;;;;;55.75;46.25;;;;;-1.68;67.75;99976.03;5004229;28;9000;-61
2021/03/10 06:06:50;;;;;;;;;51.75;40.75;;;;;-1.64;67.20;99976.00;4990321;28;8866;-60
2021/03/10 06:09:34;;;;;;;;;62.00;40.50;;;;;-1.67;68.29;99976.03;4982055;28;8838;-60
2021/03/10 06:12:05;;;;;;;;;67.00;48.50;;;;;-1.43;68.31;99971.44;4991420;28;8841;-61
2021/03/10 06:14:33;;;;;;;;;71.00;49.50;;;;;-1.38;68.79;99965.25;4977827;28;8959;-60
2021/03/10 06:17:10;;;;;;;;;88.50;60.50;;;;;-1.39;68.46;99978.44;4975055;28;8844;-59
2021/03/10 06:19:49;;;;;;;;;101.00;66.00;;;;;-1.25;68.42;99978.31;5007847;28;8932;-60
2021/03/10 06:22:18;;;;;;;;;87.25;63.25;;;;;-1.30;66.37;99981.00;4993424;28;8855;-61
2021/03/10 06:24:50;;;;;;;;;88.75;60.00;;;;;-1.05;65.29;99984.28;4992477;28;8960;-61
2021/03/10 06:27:22;;;;;;;;;100.75;71.50;;;;;-1.19;66.02;99997.56;5008120;28;8934;-60
2021/03/10 06:30:00;;;;;;;;;106.75;72.00;;;;;-1.03;65.84;100002.69;4992034;28;8862;-61
2021/03/10 06:32:27;;;;;;;;;97.00;68.00;;;;;-0.85;65.54;100007.78;4993221;28;8863;-60
2021/03/10 06:34:55;;;;;;;;;83.75;61.75;;;;;-1.02;64.27;100007.97;4992829;28;8861;-60
2021/03/10 06:37:30;;;;;;;;;68.50;51.75;;;;;-1.09;65.95;100008.91;5007955;28;8872;-61
2021/03/10 06:40:12;;;;;;;;;78.25;55.75;;;;;-0.69;63.84;100005.88;4992430;28;8842;-61
2021/03/10 06:42:40;;;;;;;;;81.25;59.75;;;;;-0.60;65.36;100012.84;4992446;28;8959;-59
2021/03/10 06:45:08;;;;;;;;;84.50;58.00;;;;;-0.49;63.17;100013.56;4992275;28;8881;-61
2021/03/10 06:47:41;;;;;;;;;93.00;67.25;;;;;-0.39;64.02;100017.00;4993393;28;8850;-60
2021/03/10 06:50:15;;;;;;;;;103.75;70.50;;;;;-0.39;65.35;100023.13;4991842;28;8853;-60
2021/03/10 06:52:51;;;;;;;;;99.50;69.75;;;;;-0.36;63.35;100025.72;4992953;28;8849;-59
2021/03/10 06:55:18;;;;;;;;;108.75;69.00;;;;;-0.27;62.42;100017.69;4986847;28;8893;-60
2021/03/10 06:57:45;;;;;;;;;94.75;66.25;;;;;-0.11;63.62;100014.88;4991502;28;8870;-58
2021/03/10 07:00:24;;;;;;;;;89.75;65.00;;;;;-0.11;64.56;100023.66;4992372;28;8972;-60
2021/03/10 07:02:53;;;;;;;;;91.50;60.75;;;;;0.22;61.66;100021.47;4992887;28;8857;-60
2021/03/10 07:05:20;;;;;;;;;86.75;63.50;;;;;0.09;60.81;100022.53;5006667;28;9481;-61
2021/03/10 07:07:48;;;;;;;;;79.50;58.00;;;;;0.25;59.25;100028.47;5007546;28;8848;-59
2021/03/10 07:10:21;;;;;;;;;82.00;59.50;;;;;0.58;59.06;100024.44;4993423;28;8861;-61
2021/03/10 07:12:48;;;;;;;;;68.75;51.50;;;;;0.50;58.51;100021.94;5007926;28;9598;-61
2021/03/10 07:15:17;;;;;;;;;64.00;50.50;;;;;0.47;57.07;100026.38;4990913;28;8968;-61
2021/03/10 07:17:46;;;;;;;;;58.25;47.50;;;;;0.61;54.94;100025.28;4991266;28;8826;-59
2021/03/10 07:20:14;;;;;;;;;69.50;45.25;;;;;0.70;56.17;100032.19;4990310;28;9497;-60
2021/03/10 07:23:10;;;;;;;;;39.25;32.00;;;;;0.94;53.49;100033.56;5006887;28;8964;-60
2021/03/10 07:25:44;;;;;;;;;46.25;38.50;;;;;0.87;54.15;100031.94;4991353;28;8837;-60
2021/03/10 07:28:25;;;;;;;;;50.50;40.00;;;;;0.93;54.55;100031.81;4991105;28;8856;-60
2021/03/10 07:30:52;;;;;;;;;36.50;32.50;;;;;0.85;53.54;100028.44;4989264;28;9036;-61
2021/03/10 07:33:22;;;;;;;;;50.75;37.25;;;;;0.92;54.71;100040.63;5006369;28;8861;-60
2021/03/10 07:35:56;;;;;;;;;24.75;19.50;;;;;1.14;51.50;100035.00;4991449;28;8861;-59
2021/03/10 07:38:37;;;;;;;;;36.75;26.25;;;;;1.35;51.09;100039.91;4991769;28;8864;-60
2021/03/10 07:41:08;;;;;;;;;30.75;24.75;;;;;1.02;51.59;100036.94;4991168;28;8865;-58
2021/03/10 07:43:35;;;;;;;;;26.50;23.00;;;;;1.19;52.47;100035.78;4991727;28;8853;-60
2021/03/10 07:46:02;;;;;;;;;37.25;28.00;;;;;1.08;52.52;100036.00;4991262;28;8869;-59
2021/03/10 07:48:35;;;;;;;;;37.00;29.00;;;;;1.46;50.25;100031.75;5005179;28;8830;-59
2021/03/10 07:51:02;;;;;;;;;35.75;31.75;;;;;1.54;51.66;100036.00;5005991;28;8842;-60
2021/03/10 07:53:37;;;;;;;;;38.50;32.25;;;;;1.63;52.06;100039.38;5005694;28;8956;-60
2021/03/10 07:56:08;;;;;;;;;31.25;28.25;;;;;1.99;51.61;100043.06;4996908;28;8845;-60
2021/03/10 07:58:35;;;;;;;;;43.75;32.50;;;;;2.26;49.62;100036.28;4990252;28;8847;-59
2021/03/10 08:01:14;;;;;;;;;35.00;28.75;;;;;2.31;50.87;100038.84;4990640;28;8960;-60
2021/03/10 08:03:41;;;;;;;;;35.00;29.00;;;;;2.17;50.16;100037.38;4990868;28;8834;-58
2021/03/10 08:06:10;;;;;;;;;29.00;24.75;;;;;2.26;49.98;100046.88;4978938;28;8852;-60
2021/03/10 08:08:41;;;;;;;;;35.00;26.25;;;;;2.92;48.39;100044.47;5013033;28;8922;-60
2021/03/10 08:11:16;;;;;;;;;26.75;21.25;;;;;2.82;46.84;100038.56;4989540;28;8876;-60
2021/03/10 08:13:47;;;;;;;;;34.00;28.75;;;;;3.07;45.73;100044.09;5022250;28;8847;-60
2021/03/10 08:16:14;;;;;;;;;30.75;21.75;;;;;3.33;45.34;100042.56;4990067;28;8935;-60
2021/03/10 08:18:47;;;;;;;;;25.25;21.00;;;;;3.22;46.36;100045.50;4985686;28;8853;-60
2021/03/10 08:21:18;;;;;;;;;31.00;26.50;;;;;3.42;45.35;100039.66;4991093;28;8869;-59
2021/03/10 08:23:47;;;;;;;;;24.50;21.25;;;;;3.26;45.56;100045.38;5021556;28;8822;-59
2021/03/10 08:26:18;;;;;;;;;49.50;34.25;;;;;4.48;46.33;100042.81;4989916;28;8842;-58
2021/03/10 08:28:45;;;;;;;;;66.50;52.00;;;;;3.68;46.11;100044.28;4989903;28;8901;-59
2021/03/10 08:31:12;;;;;;;;;23.50;16.00;;;;;2.88;45.47;100035.75;4990752;28;8852;-61
2021/03/10 08:33:51;;;;;;;;;32.25;28.25;;;;;3.46;45.21;100030.72;5005011;28;8870;-60
2021/03/10 08:37:15;;;;;;;;;29.25;26.75;;;;;4.06;45.37;100027.25;4309449;22;10887;-61
2021/03/10 08:39:47;;;;;;;;;31.75;24.50;;;;;3.88;44.81;100031.31;4977875;28;9554;-58
2021/03/10 08:42:19;;;;;;;;;34.75;25.75;;;;;4.11;44.00;100024.47;4991910;28;9542;-56
2021/03/10 08:44:48;;;;;;;;;34.00;28.50;;;;;4.08;44.61;100021.88;4990353;28;8845;-57
2021/03/10 08:47:23;;;;;;;;;28.75;23.75;;;;;4.73;44.36;100016.31;4976482;28;9811;-56
2021/03/10 08:49:57;;;;;;;;;27.25;23.75;;;;;4.49;43.84;100017.97;4992288;28;8872;-58
2021/03/10 08:52:28;;;;;;;;;29.50;23.25;;;;;4.09;44.00;100019.19;4992299;28;9586;-58
2021/03/10 08:55:01;;;;;;;;;27.25;25.25;;;;;4.11;43.61;100016.50;4992347;28;9570;-58
2021/03/10 08:57:37;;;;;;;;;22.50;22.50;;;;;4.14;43.91;100009.28;4992173;28;8862;-56
2021/03/10 09:00:21;;;;;;;;;39.25;26.25;;;;;4.75;43.87;100002.97;4992257;28;8829;-56
2021/03/10 09:02:50;;;;;;;;;24.00;21.25;;;;;5.19;42.47;99997.97;4990901;28;8861;-58
2021/03/10 09:05:30;;;;;;;;;48.50;44.00;;;;;4.81;42.27;100003.63;4992007;28;8854;-59
2021/03/10 09:07:57;;;;;;;;;29.75;23.25;;;;;5.15;42.24;100010.47;4991309;28;8845;-55
2021/03/10 09:10:24;;;;;;;;;22.50;19.75;;;;;4.61;42.14;100006.94;4997183;28;8879;-59
2021/03/10 09:12:53;;;;;;;;;24.50;22.75;;;;;5.25;43.01;100009.25;4990721;28;8872;-59
2021/03/10 09:15:25;;;;;;;;;27.67;21.33;;;;;5.42;42.40;100008.66;4991902;28;8846;-59
2021/03/10 09:17:52;;;;;;;;;23.67;21.33;;;;;5.09;42.18;100004.50;4991659;28;8866;-56
2021/03/10 09:20:24;;;;;;;;;29.75;23.75;;;;;5.46;40.82;100002.31;4985715;28;9567;-56
2021/03/10 09:22:52;;;;;;;;;21.67;20.00;;;;;6.20;40.77;100004.94;4991938;28;8841;-57
2021/03/10 09:25:28;;;;;;;;;30.33;27.33;;;;;6.26;40.04;99994.03;4992378;28;8927;-59
2021/03/10 09:28:09;;;;;;;;;38.25;30.00;;;;;6.61;38.99;99997.13;4991312;28;8854;-59
2021/03/10 09:30:44;;;;;;;;;22.67;19.67;;;;;7.20;38.38;99999.09;4991514;28;8943;-57
2021/03/10 09:33:29;;;;;;;;;19.33;17.00;;;;;6.38;37.93;99998.88;4991704;28;9001;-58
2021/03/10 09:35:58;;;;;;;;;23.33;21.33;;;;;5.69;42.35;100003.28;4992089;28;8977;-58
2021/03/10 09:38:28;;;;;;;;;53.50;43.00;;;;;5.26;40.86;99997.66;4991043;28;8971;-58
2021/03/10 09:41:02;;;;;;;;;23.00;23.00;;;;;5.04;41.72;100000.19;4991657;28;8949;-59
2021/03/10 09:43:33;;;;;;;;;32.75;25.50;;;;;5.03;42.38;99995.81;4990795;28;8861;-58
2021/03/10 09:46:02;;;;;;;;;22.00;19.00;;;;;5.28;40.81;100000.28;5005974;28;8842;-58
2021/03/10 09:48:37;;;;;;;;;27.25;26.25;;;;;5.12;41.76;99996.41;4995376;28;8857;-57
2021/03/10 09:51:12;;;;;;;;;31.75;29.00;;;;;5.59;41.92;99991.22;4994126;28;8845;-58
2021/03/10 09:53:43;;;;;;;;;36.33;25.00;;;;;6.27;41.05;99993.13;4994775;28;8853;-58
2021/03/10 09:56:13;;;;;;;;;30.00;27.00;;;;;5.56;41.14;99989.53;4984374;28;8881;-58
2021/03/10 09:58:57;;;;;;;;;35.75;29.50;;;;;5.87;41.63;99988.38;4995395;28;8861;-58
2021/03/10 10:01:26;;;;;;;;;29.25;26.25;;;;;5.85;40.81;99988.47;4995169;28;8842;-57
2021/03/10 10:03:56;;;;;;;;;31.50;27.00;;;;;6.43;39.35;99995.19;4994379;28;8833;-58
2021/03/10 10:06:23;;;;;;;;;38.67;32.00;;;;;6.85;39.97;99989.91;4978273;28;8850;-58
2021/03/10 10:08:51;;;;;;;;;32.00;26.00;;;;;6.46;38.77;99985.25;4997865;28;8819;-59
2021/03/10 10:11:20;;;;;;;;;31.00;26.33;;;;;7.01;39.36;99987.47;5003406;28;8932;-59
2021/03/10 10:13:49;;;;;;;;;28.00;22.00;;;;;7.57;39.38;99986.81;4994947;28;8845;-59
2021/03/10 10:16:17;;;;;;;;;79.25;57.75;;;;;7.56;38.54;99989.56;4994127;28;8939;-59
2021/03/10 10:18:45;;;;;;;;;37.67;29.33;;;;;7.67;39.01;99988.13;4993607;28;8838;-58
2021/03/10 10:21:13;;;;;;;;;45.33;31.00;;;;;7.42;39.89;99987.47;4994687;28;8888;-58
2021/03/10 10:23:40;;;;;;;;;36.00;31.33;;;;;7.68;38.25;99979.16;4992120;28;8941;-59
2021/03/10 10:26:07;;;;;;;;;36.33;33.33;;;;;6.45;38.44;99977.28;4975178;28;8898;-58
2021/03/10 10:28:35;;;;;;;;;50.00;35.00;;;;;7.60;38.81;99986.66;4983720;28;8864;-59
2021/03/10 10:31:07;;;;;;;;;38.00;35.33;;;;;7.69;38.03;99980.91;4994293;28;8876;-59
2021/03/10 10:33:34;;;;;;;;;40.67;33.67;;;;;7.26;38.30;99989.94;4993654;28;8848;-59
2021/03/10 10:36:01;;;;;;;;;37.67;32.67;;;;;7.90;37.94;99978.22;4994627;28;8958;-59
2021/03/10 10:38:28;;;;;;;;;38.00;35.00;;;;;7.83;38.18;99974.09;4994102;28;8889;-58
2021/03/10 10:40:56;;;;;;;;;43.00;33.33;;;;;8.06;37.94;99981.91;4993521;28;8857;-59
2021/03/10 10:43:22;;;;;;;;;38.00;33.00;;;;;7.67;38.11;99974.78;4992202;28;8829;-59
2021/03/10 10:45:49;;;;;;;;;47.33;37.33;;;;;7.92;39.18;99979.00;4994484;28;8955;-58
2021/03/10 10:48:16;;;;;;;;;33.33;25.67;;;;;7.60;38.36;99962.59;4994414;28;8866;-59
2021/03/10 10:50:43;;;;;;;;;36.33;32.67;;;;;8.30;37.82;99966.50;4992954;28;8877;-59
2021/03/10 10:53:10;;;;;;;;;33.33;25.67;;;;;7.52;38.99;99955.88;4994382;28;9578;-59
2021/03/10 10:55:37;;;;;;;;;34.33;29.67;;;;;7.94;36.70;99963.75;4993789;28;8862;-59
2021/03/10 10:58:04;;;;;;;;;44.00;34.67;;;;;8.23;38.63;99945.47;4994340;28;8953;-59
2021/03/10 11:00:31;;;;;;;;;91.00;68.00;;;;;7.92;38.27;99954.94;4993749;28;8960;-59
2021/03/10 11:02:59;;;;;;;;;42.00;32.33;;;;;8.79;37.51;99952.56;4993496;28;9434;-60
2021/03/10 11:05:26;;;;;;;;;40.00;34.67;;;;;6.57;38.80;99944.81;4993135;28;8853;-59
2021/03/10 11:07:52;;;;;;;;;39.00;32.00;;;;;7.95;37.23;99944.09;4993456;28;8853;-57
2021/03/10 11:10:19;;;;;;;;;45.33;34.67;;;;;7.58;39.00;99940.47;5010556;28;8855;-59
2021/03/10 11:12:46;;;;;;;;;37.00;27.00;;;;;7.89;38.10;99945.25;5009665;28;8854;-59
2021/03/10 11:15:14;;;;;;;;;50.67;40.00;;;;;7.16;38.73;99935.19;4976594;28;8850;-59
2021/03/10 11:17:41;;;;;;;;;45.00;37.33;;;;;7.70;38.61;99939.88;4993900;28;8885;-59
2021/03/10 11:20:09;;;;;;;;;42.33;38.00;;;;;7.30;37.20;99935.47;4993899;28;8850;-59
2021/03/10 11:22:36;;;;;;;;;42.33;31.67;;;;;6.82;37.75;99934.00;4980612;28;8849;-59
2021/03/10 11:25:11;;;;;;;;;41.33;34.33;;;;;7.33;38.37;99930.00;4992122;28;8931;-59
2021/03/10 11:27:38;;;;;;;;;46.00;34.67;;;;;7.37;37.22;99925.38;4993154;28;8837;-59
2021/03/10 11:30:08;;;;;;;;;51.67;38.00;;;;;7.67;36.28;99917.78;4992983;28;8908;-59
2021/03/10 11:32:36;;;;;;;;;39.33;32.67;;;;;7.09;35.86;99905.25;4992739;28;8841;-59
2021/03/10 11:35:07;;;;;;;;;41.33;30.00;;;;;7.42;36.87;99907.34;4993826;28;8892;-59
2021/03/10 11:37:35;;;;;;;;;42.67;36.00;;;;;7.36;38.08;99907.63;4991735;28;8869;-59
2021/03/10 11:40:07;;;;;;;;;49.33;37.33;;;;;7.51;36.40;99901.59;4987916;28;8861;-58